sensor_id;sensor_type;location;lat;lon;timestamp;P1;durP1;ratioP1;P2;durP2;ratioP2
9310;SDS011;4694;52.464;13.480;2023-11-19T00:01:06;10.02;;;7.63;;
9310;SDS011;4694;52.464;13.480;2023-11-19T00:03:33;9.98;;;5.97;;
9310;SDS011;4694;52.464;13.480;2023-11-19T00:06:00;11.07;;;6.25;;
9310;SDS011;4694;52.464;13.480;2023-11-19T00:08:27;10.18;;;5.85;;
9310;SDS011;4694;52.464;13.480;2023-11-19T00:10:54;7.97;;;6.18;;
9310;SDS011;4694;52.464;13.480;2023-11-19T00:13:21;10.68;;;7.47;;
9310;SDS011;4694;52.464;13.480;2023-11-19T00:18:18;10.18;;;5.85;;
9310;SDS011;4694;52.464;13.480;2023-11-19T00:20:45;9.35;;;5.65;;
9310;SDS011;4694;52.464;13.480;2023-11-19T00:23:12;6.72;;;5.47;;
9310;SDS011;4694;52.464;13.480;2023-11-19T00:25:39;8.38;;;6.07;;
9310;SDS011;4694;52.464;13.480;2023-11-19T00:28:05;9.13;;;5.75;;
9310;SDS011;4694;52.464;13.480;2023-11-19T00:30:33;9.50;;;5.53;;
9310;SDS011;4694;52.464;13.480;2023-11-19T00:33:00;8.82;;;5.88;;
9310;SDS011;4694;52.464;13.480;2023-11-19T00:35:26;9.52;;;6.50;;
9310;SDS011;4694;52.464;13.480;2023-11-19T00:37:53;8.88;;;6.22;;
9310;SDS011;4694;52.464;13.480;2023-11-19T00:40:20;9.80;;;5.82;;
9310;SDS011;4694;52.464;13.480;2023-11-19T00:42:48;11.52;;;5.85;;
9310;SDS011;4694;52.464;13.480;2023-11-19T00:45:15;10.82;;;5.80;;
9310;SDS011;4694;52.464;13.480;2023-11-19T00:47:43;9.45;;;6.78;;
9310;SDS011;4694;52.464;13.480;2023-11-19T00:50:09;7.93;;;5.07;;
9310;SDS011;4694;52.464;13.480;2023-11-19T00:52:38;10.98;;;6.03;;
9310;SDS011;4694;52.464;13.480;2023-11-19T00:55:05;11.23;;;6.18;;
9310;SDS011;4694;52.464;13.480;2023-11-19T00:57:32;8.30;;;6.28;;
9310;SDS011;4694;52.464;13.480;2023-11-19T00:59:59;10.32;;;5.80;;
9310;SDS011;4694;52.464;13.480;2023-11-19T01:02:25;7.00;;;5.60;;
9310;SDS011;4694;52.464;13.480;2023-11-19T01:04:53;8.90;;;6.68;;
9310;SDS011;4694;52.464;13.480;2023-11-19T01:07:20;9.15;;;5.55;;
9310;SDS011;4694;52.464;13.480;2023-11-19T01:09:49;9.95;;;6.57;;
9310;SDS011;4694;52.464;13.480;2023-11-19T01:12:15;9.05;;;4.90;;
9310;SDS011;4694;52.464;13.480;2023-11-19T01:14:42;8.73;;;5.45;;
9310;SDS011;4694;52.464;13.480;2023-11-19T01:17:08;7.53;;;4.43;;
9310;SDS011;4694;52.464;13.480;2023-11-19T01:19:35;7.45;;;5.18;;
9310;SDS011;4694;52.464;13.480;2023-11-19T01:22:03;11.88;;;6.05;;
9310;SDS011;4694;52.464;13.480;2023-11-19T01:24:30;7.60;;;5.20;;
9310;SDS011;4694;52.464;13.480;2023-11-19T01:26:56;8.68;;;5.22;;
9310;SDS011;4694;52.464;13.480;2023-11-19T01:29:24;8.20;;;4.63;;
9310;SDS011;4694;52.464;13.480;2023-11-19T01:31:51;6.80;;;5.22;;
9310;SDS011;4694;52.464;13.480;2023-11-19T01:34:18;5.65;;;4.82;;
9310;SDS011;4694;52.464;13.480;2023-11-19T01:36:44;10.68;;;7.70;;
9310;SDS011;4694;52.464;13.480;2023-11-19T01:39:15;8.30;;;5.72;;
9310;SDS011;4694;52.464;13.480;2023-11-19T01:41:42;7.93;;;5.07;;
9310;SDS011;4694;52.464;13.480;2023-11-19T01:44:08;10.65;;;5.88;;
9310;SDS011;4694;52.464;13.480;2023-11-19T01:46:37;7.25;;;4.97;;
9310;SDS011;4694;52.464;13.480;2023-11-19T01:49:04;8.73;;;5.40;;
9310;SDS011;4694;52.464;13.480;2023-11-19T01:51:31;9.73;;;5.82;;
9310;SDS011;4694;52.464;13.480;2023-11-19T01:53:59;9.90;;;4.95;;
9310;SDS011;4694;52.464;13.480;2023-11-19T01:56:28;6.82;;;4.32;;
9310;SDS011;4694;52.464;13.480;2023-11-19T01:58:56;7.22;;;4.78;;
9310;SDS011;4694;52.464;13.480;2023-11-19T02:01:23;11.55;;;5.57;;
9310;SDS011;4694;52.464;13.480;2023-11-19T02:03:50;10.38;;;5.93;;
9310;SDS011;4694;52.464;13.480;2023-11-19T02:06:18;4.65;;;3.63;;
9310;SDS011;4694;52.464;13.480;2023-11-19T02:08:44;10.80;;;5.80;;
9310;SDS011;4694;52.464;13.480;2023-11-19T02:11:11;9.55;;;5.88;;
9310;SDS011;4694;52.464;13.480;2023-11-19T02:13:39;7.47;;;5.32;;
9310;SDS011;4694;52.464;13.480;2023-11-19T02:16:06;9.88;;;6.35;;
9310;SDS011;4694;52.464;13.480;2023-11-19T02:18:34;9.40;;;5.45;;
9310;SDS011;4694;52.464;13.480;2023-11-19T02:21:01;8.85;;;5.78;;
9310;SDS011;4694;52.464;13.480;2023-11-19T02:23:28;12.75;;;5.45;;
9310;SDS011;4694;52.464;13.480;2023-11-19T02:25:59;8.38;;;5.07;;
9310;SDS011;4694;52.464;13.480;2023-11-19T02:28:31;9.15;;;5.40;;
9310;SDS011;4694;52.464;13.480;2023-11-19T02:30:59;8.50;;;4.70;;
9310;SDS011;4694;52.464;13.480;2023-11-19T02:33:25;6.97;;;5.13;;
9310;SDS011;4694;52.464;13.480;2023-11-19T02:35:52;9.25;;;5.68;;
9310;SDS011;4694;52.464;13.480;2023-11-19T02:38:19;9.55;;;6.55;;
9310;SDS011;4694;52.464;13.480;2023-11-19T02:40:46;7.82;;;4.22;;
9310;SDS011;4694;52.464;13.480;2023-11-19T02:43:14;6.78;;;4.93;;
9310;SDS011;4694;52.464;13.480;2023-11-19T02:45:43;6.80;;;5.03;;
9310;SDS011;4694;52.464;13.480;2023-11-19T02:48:10;7.22;;;4.60;;
9310;SDS011;4694;52.464;13.480;2023-11-19T02:50:39;5.32;;;3.80;;
9310;SDS011;4694;52.464;13.480;2023-11-19T02:53:06;9.05;;;6.10;;
9310;SDS011;4694;52.464;13.480;2023-11-19T02:55:33;8.95;;;5.05;;
9310;SDS011;4694;52.464;13.480;2023-11-19T02:58:02;5.25;;;4.32;;
9310;SDS011;4694;52.464;13.480;2023-11-19T03:00:46;6.40;;;3.95;;
9310;SDS011;4694;52.464;13.480;2023-11-19T03:03:17;7.60;;;5.13;;
9310;SDS011;4694;52.464;13.480;2023-11-19T03:05:45;5.97;;;3.50;;
9310;SDS011;4694;52.464;13.480;2023-11-19T03:08:14;8.50;;;4.40;;
9310;SDS011;4694;52.464;13.480;2023-11-19T03:10:41;5.50;;;3.83;;
9310;SDS011;4694;52.464;13.480;2023-11-19T03:13:10;5.43;;;3.67;;
9310;SDS011;4694;52.464;13.480;2023-11-19T03:15:39;5.40;;;3.45;;
9310;SDS011;4694;52.464;13.480;2023-11-19T03:18:07;7.05;;;5.20;;
9310;SDS011;4694;52.464;13.480;2023-11-19T03:20:33;3.90;;;3.45;;
9310;SDS011;4694;52.464;13.480;2023-11-19T03:23:00;9.35;;;5.80;;
9310;SDS011;4694;52.464;13.480;2023-11-19T03:25:27;6.80;;;3.97;;
9310;SDS011;4694;52.464;13.480;2023-11-19T03:27:58;9.68;;;4.28;;
9310;SDS011;4694;52.464;13.480;2023-11-19T03:30:25;4.50;;;4.00;;
9310;SDS011;4694;52.464;13.480;2023-11-19T03:32:51;6.35;;;4.03;;
9310;SDS011;4694;52.464;13.480;2023-11-19T03:35:19;6.45;;;3.63;;
9310;SDS011;4694;52.464;13.480;2023-11-19T03:37:46;5.43;;;3.97;;
9310;SDS011;4694;52.464;13.480;2023-11-19T03:40:13;5.18;;;4.30;;
9310;SDS011;4694;52.464;13.480;2023-11-19T03:42:39;5.15;;;3.65;;
9310;SDS011;4694;52.464;13.480;2023-11-19T03:45:06;4.53;;;3.42;;
9310;SDS011;4694;52.464;13.480;2023-11-19T03:47:34;6.60;;;4.03;;
9310;SDS011;4694;52.464;13.480;2023-11-19T03:50:01;8.13;;;5.05;;
9310;SDS011;4694;52.464;13.480;2023-11-19T03:52:30;6.90;;;4.50;;
9310;SDS011;4694;52.464;13.480;2023-11-19T03:54:57;7.35;;;3.95;;
9310;SDS011;4694;52.464;13.480;2023-11-19T03:57:23;9.10;;;4.38;;
9310;SDS011;4694;52.464;13.480;2023-11-19T03:59:50;12.65;;;6.20;;
9310;SDS011;4694;52.464;13.480;2023-11-19T04:02:17;8.90;;;5.00;;
9310;SDS011;4694;52.464;13.480;2023-11-19T04:04:43;9.65;;;6.15;;
9310;SDS011;4694;52.464;13.480;2023-11-19T04:07:10;9.13;;;5.25;;
9310;SDS011;4694;52.464;13.480;2023-11-19T04:09:38;10.98;;;5.15;;
9310;SDS011;4694;52.464;13.480;2023-11-19T04:12:05;7.68;;;5.57;;
9310;SDS011;4694;52.464;13.480;2023-11-19T04:14:32;12.18;;;6.50;;
9310;SDS011;4694;52.464;13.480;2023-11-19T04:16:58;11.38;;;6.07;;
9310;SDS011;4694;52.464;13.480;2023-11-19T04:19:25;18.15;;;8.50;;
9310;SDS011;4694;52.464;13.480;2023-11-19T04:21:52;12.98;;;7.00;;
9310;SDS011;4694;52.464;13.480;2023-11-19T04:24:18;12.60;;;6.65;;
9310;SDS011;4694;52.464;13.480;2023-11-19T04:26:46;12.00;;;7.75;;
9310;SDS011;4694;52.464;13.480;2023-11-19T04:29:13;16.58;;;8.50;;
9310;SDS011;4694;52.464;13.480;2023-11-19T04:31:42;11.23;;;6.95;;
9310;SDS011;4694;52.464;13.480;2023-11-19T04:34:09;13.98;;;7.65;;
9310;SDS011;4694;52.464;13.480;2023-11-19T04:36:36;15.32;;;8.70;;
9310;SDS011;4694;52.464;13.480;2023-11-19T04:39:04;17.77;;;10.52;;
9310;SDS011;4694;52.464;13.480;2023-11-19T04:41:34;13.45;;;7.75;;
9310;SDS011;4694;52.464;13.480;2023-11-19T04:44:03;15.95;;;8.35;;
9310;SDS011;4694;52.464;13.480;2023-11-19T04:46:29;14.38;;;8.18;;
9310;SDS011;4694;52.464;13.480;2023-11-19T04:48:56;13.90;;;8.25;;
9310;SDS011;4694;52.464;13.480;2023-11-19T04:51:22;15.00;;;7.88;;
9310;SDS011;4694;52.464;13.480;2023-11-19T04:53:49;14.88;;;8.70;;
9310;SDS011;4694;52.464;13.480;2023-11-19T04:56:15;13.02;;;7.32;;
9310;SDS011;4694;52.464;13.480;2023-11-19T04:58:45;11.68;;;7.18;;
9310;SDS011;4694;52.464;13.480;2023-11-19T05:01:14;14.73;;;8.05;;
9310;SDS011;4694;52.464;13.480;2023-11-19T05:03:42;15.80;;;8.93;;
9310;SDS011;4694;52.464;13.480;2023-11-19T05:06:09;16.25;;;8.32;;
9310;SDS011;4694;52.464;13.480;2023-11-19T05:08:36;17.83;;;8.30;;
9310;SDS011;4694;52.464;13.480;2023-11-19T05:11:02;16.27;;;8.70;;
9310;SDS011;4694;52.464;13.480;2023-11-19T05:13:31;14.93;;;8.30;;
9310;SDS011;4694;52.464;13.480;2023-11-19T05:15:57;17.15;;;8.07;;
9310;SDS011;4694;52.464;13.480;2023-11-19T05:18:25;24.73;;;11.00;;
9310;SDS011;4694;52.464;13.480;2023-11-19T05:20:53;19.15;;;9.65;;
9310;SDS011;4694;52.464;13.480;2023-11-19T05:23:20;18.58;;;9.65;;
9310;SDS011;4694;52.464;13.480;2023-11-19T05:25:46;18.67;;;10.15;;
9310;SDS011;4694;52.464;13.480;2023-11-19T05:28:13;19.95;;;10.18;;
9310;SDS011;4694;52.464;13.480;2023-11-19T05:30:40;26.20;;;10.50;;
9310;SDS011;4694;52.464;13.480;2023-11-19T05:33:07;18.45;;;8.88;;
9310;SDS011;4694;52.464;13.480;2023-11-19T05:35:35;17.10;;;9.93;;
9310;SDS011;4694;52.464;13.480;2023-11-19T05:38:02;16.88;;;9.93;;
9310;SDS011;4694;52.464;13.480;2023-11-19T05:40:28;16.65;;;9.00;;
9310;SDS011;4694;52.464;13.480;2023-11-19T05:42:55;15.18;;;9.18;;
9310;SDS011;4694;52.464;13.480;2023-11-19T05:45:21;17.80;;;10.13;;
9310;SDS011;4694;52.464;13.480;2023-11-19T05:47:48;17.08;;;9.18;;
9310;SDS011;4694;52.464;13.480;2023-11-19T05:50:16;17.85;;;8.93;;
9310;SDS011;4694;52.464;13.480;2023-11-19T05:52:44;18.85;;;8.52;;
9310;SDS011;4694;52.464;13.480;2023-11-19T05:55:11;16.58;;;9.70;;
9310;SDS011;4694;52.464;13.480;2023-11-19T05:57:39;17.52;;;8.43;;
9310;SDS011;4694;52.464;13.480;2023-11-19T06:00:06;15.20;;;6.75;;
9310;SDS011;4694;52.464;13.480;2023-11-19T06:02:35;15.10;;;8.55;;
9310;SDS011;4694;52.464;13.480;2023-11-19T06:05:03;17.25;;;9.93;;
9310;SDS011;4694;52.464;13.480;2023-11-19T06:07:31;13.35;;;9.15;;
9310;SDS011;4694;52.464;13.480;2023-11-19T06:09:59;14.05;;;6.63;;
9310;SDS011;4694;52.464;13.480;2023-11-19T06:12:27;12.43;;;7.53;;
9310;SDS011;4694;52.464;13.480;2023-11-19T06:14:54;15.32;;;9.13;;
9310;SDS011;4694;52.464;13.480;2023-11-19T06:17:21;15.70;;;8.35;;
9310;SDS011;4694;52.464;13.480;2023-11-19T06:19:48;12.27;;;7.28;;
9310;SDS011;4694;52.464;13.480;2023-11-19T06:22:14;11.30;;;7.25;;
9310;SDS011;4694;52.464;13.480;2023-11-19T06:24:41;17.95;;;7.22;;
9310;SDS011;4694;52.464;13.480;2023-11-19T06:27:09;13.90;;;8.50;;
9310;SDS011;4694;52.464;13.480;2023-11-19T06:29:35;15.80;;;7.45;;
9310;SDS011;4694;52.464;13.480;2023-11-19T06:32:02;13.88;;;8.23;;
9310;SDS011;4694;52.464;13.480;2023-11-19T06:34:31;13.05;;;7.47;;
9310;SDS011;4694;52.464;13.480;2023-11-19T06:36:58;15.50;;;7.88;;
9310;SDS011;4694;52.464;13.480;2023-11-19T06:39:24;15.30;;;8.20;;
9310;SDS011;4694;52.464;13.480;2023-11-19T06:41:51;17.35;;;7.95;;
9310;SDS011;4694;52.464;13.480;2023-11-19T06:44:19;11.10;;;5.82;;
9310;SDS011;4694;52.464;13.480;2023-11-19T06:46:46;12.60;;;7.40;;
9310;SDS011;4694;52.464;13.480;2023-11-19T06:49:14;13.63;;;8.68;;
9310;SDS011;4694;52.464;13.480;2023-11-19T06:51:41;13.50;;;6.60;;
9310;SDS011;4694;52.464;13.480;2023-11-19T06:54:09;13.95;;;8.07;;
9310;SDS011;4694;52.464;13.480;2023-11-19T06:56:35;13.95;;;9.13;;
9310;SDS011;4694;52.464;13.480;2023-11-19T06:59:02;12.18;;;7.22;;
9310;SDS011;4694;52.464;13.480;2023-11-19T07:01:35;13.45;;;7.78;;
9310;SDS011;4694;52.464;13.480;2023-11-19T07:04:02;12.52;;;7.40;;
9310;SDS011;4694;52.464;13.480;2023-11-19T07:06:33;13.40;;;8.38;;
9310;SDS011;4694;52.464;13.480;2023-11-19T07:09:00;11.35;;;6.57;;
9310;SDS011;4694;52.464;13.480;2023-11-19T07:11:34;11.38;;;6.43;;
9310;SDS011;4694;52.464;13.480;2023-11-19T07:14:01;10.40;;;6.22;;
9310;SDS011;4694;52.464;13.480;2023-11-19T07:16:29;10.05;;;7.07;;
9310;SDS011;4694;52.464;13.480;2023-11-19T07:18:56;10.30;;;6.82;;
9310;SDS011;4694;52.464;13.480;2023-11-19T07:21:24;12.05;;;7.80;;
9310;SDS011;4694;52.464;13.480;2023-11-19T07:23:52;14.07;;;7.32;;
9310;SDS011;4694;52.464;13.480;2023-11-19T07:26:19;9.82;;;7.32;;
9310;SDS011;4694;52.464;13.480;2023-11-19T07:28:46;10.43;;;8.05;;
9310;SDS011;4694;52.464;13.480;2023-11-19T07:31:13;12.60;;;7.72;;
9310;SDS011;4694;52.464;13.480;2023-11-19T07:33:40;8.73;;;5.72;;
9310;SDS011;4694;52.464;13.480;2023-11-19T07:36:09;9.48;;;6.03;;
9310;SDS011;4694;52.464;13.480;2023-11-19T07:38:35;12.48;;;8.27;;
9310;SDS011;4694;52.464;13.480;2023-11-19T07:41:03;13.10;;;8.88;;
9310;SDS011;4694;52.464;13.480;2023-11-19T07:43:31;10.18;;;6.75;;
9310;SDS011;4694;52.464;13.480;2023-11-19T07:45:58;13.05;;;7.60;;
9310;SDS011;4694;52.464;13.480;2023-11-19T07:48:26;12.60;;;7.82;;
9310;SDS011;4694;52.464;13.480;2023-11-19T07:50:53;12.18;;;7.90;;
9310;SDS011;4694;52.464;13.480;2023-11-19T07:53:21;13.25;;;8.25;;
9310;SDS011;4694;52.464;13.480;2023-11-19T07:55:47;11.07;;;7.00;;
9310;SDS011;4694;52.464;13.480;2023-11-19T07:58:14;13.75;;;7.68;;
9310;SDS011;4694;52.464;13.480;2023-11-19T08:00:41;14.93;;;8.45;;
9310;SDS011;4694;52.464;13.480;2023-11-19T08:03:07;14.10;;;8.10;;
9310;SDS011;4694;52.464;13.480;2023-11-19T08:05:34;12.10;;;7.15;;
9310;SDS011;4694;52.464;13.480;2023-11-19T08:08:01;13.95;;;8.25;;
9310;SDS011;4694;52.464;13.480;2023-11-19T08:10:30;12.18;;;7.85;;
9310;SDS011;4694;52.464;13.480;2023-11-19T08:12:58;12.65;;;8.20;;
9310;SDS011;4694;52.464;13.480;2023-11-19T08:15:24;13.05;;;8.18;;
9310;SDS011;4694;52.464;13.480;2023-11-19T08:17:51;16.02;;;9.25;;
9310;SDS011;4694;52.464;13.480;2023-11-19T08:20:18;15.02;;;7.50;;
9310;SDS011;4694;52.464;13.480;2023-11-19T08:22:45;12.52;;;6.95;;
9310;SDS011;4694;52.464;13.480;2023-11-19T08:25:12;12.38;;;7.75;;
9310;SDS011;4694;52.464;13.480;2023-11-19T08:27:39;12.82;;;7.28;;
9310;SDS011;4694;52.464;13.480;2023-11-19T08:30:08;12.80;;;7.60;;
9310;SDS011;4694;52.464;13.480;2023-11-19T08:32:36;13.18;;;8.25;;
9310;SDS011;4694;52.464;13.480;2023-11-19T08:35:03;10.48;;;7.10;;
9310;SDS011;4694;52.464;13.480;2023-11-19T08:37:30;12.20;;;7.18;;
9310;SDS011;4694;52.464;13.480;2023-11-19T08:39:57;14.35;;;7.68;;
9310;SDS011;4694;52.464;13.480;2023-11-19T08:42:24;13.73;;;8.15;;
9310;SDS011;4694;52.464;13.480;2023-11-19T08:44:52;17.20;;;9.77;;
9310;SDS011;4694;52.464;13.480;2023-11-19T08:47:19;11.57;;;8.55;;
9310;SDS011;4694;52.464;13.480;2023-11-19T08:49:47;14.82;;;8.63;;
9310;SDS011;4694;52.464;13.480;2023-11-19T08:52:14;9.88;;;6.72;;
9310;SDS011;4694;52.464;13.480;2023-11-19T08:54:42;12.52;;;7.45;;
9310;SDS011;4694;52.464;13.480;2023-11-19T08:57:09;14.32;;;9.57;;
9310;SDS011;4694;52.464;13.480;2023-11-19T08:59:35;12.85;;;8.10;;
9310;SDS011;4694;52.464;13.480;2023-11-19T09:02:05;13.95;;;8.13;;
9310;SDS011;4694;52.464;13.480;2023-11-19T09:04:31;13.40;;;7.95;;
9310;SDS011;4694;52.464;13.480;2023-11-19T09:06:58;11.80;;;7.30;;
9310;SDS011;4694;52.464;13.480;2023-11-19T09:09:25;11.05;;;7.25;;
9310;SDS011;4694;52.464;13.480;2023-11-19T09:11:51;11.45;;;6.90;;
9310;SDS011;4694;52.464;13.480;2023-11-19T09:14:18;10.90;;;6.78;;
9310;SDS011;4694;52.464;13.480;2023-11-19T09:16:49;13.75;;;7.93;;
9310;SDS011;4694;52.464;13.480;2023-11-19T09:19:17;12.30;;;7.53;;
9310;SDS011;4694;52.464;13.480;2023-11-19T09:21:43;11.98;;;7.40;;
9310;SDS011;4694;52.464;13.480;2023-11-19T09:24:10;12.63;;;7.35;;
9310;SDS011;4694;52.464;13.480;2023-11-19T09:26:37;11.25;;;6.72;;
9310;SDS011;4694;52.464;13.480;2023-11-19T09:29:06;10.68;;;6.80;;
9310;SDS011;4694;52.464;13.480;2023-11-19T09:31:33;9.57;;;5.57;;
9310;SDS011;4694;52.464;13.480;2023-11-19T09:33:59;10.95;;;7.30;;
9310;SDS011;4694;52.464;13.480;2023-11-19T09:36:27;8.90;;;7.15;;
9310;SDS011;4694;52.464;13.480;2023-11-19T09:38:54;8.40;;;5.50;;
9310;SDS011;4694;52.464;13.480;2023-11-19T09:41:20;9.02;;;5.53;;
9310;SDS011;4694;52.464;13.480;2023-11-19T09:43:47;8.98;;;5.38;;
9310;SDS011;4694;52.464;13.480;2023-11-19T09:46:14;8.50;;;5.55;;
9310;SDS011;4694;52.464;13.480;2023-11-19T09:48:43;6.15;;;4.82;;
9310;SDS011;4694;52.464;13.480;2023-11-19T09:51:13;9.00;;;5.07;;
9310;SDS011;4694;52.464;13.480;2023-11-19T09:53:41;6.88;;;4.97;;
9310;SDS011;4694;52.464;13.480;2023-11-19T09:56:07;10.50;;;4.93;;
9310;SDS011;4694;52.464;13.480;2023-11-19T09:58:35;9.10;;;5.00;;
9310;SDS011;4694;52.464;13.480;2023-11-19T10:01:01;6.03;;;3.65;;
9310;SDS011;4694;52.464;13.480;2023-11-19T10:03:32;7.53;;;3.28;;
9310;SDS011;4694;52.464;13.480;2023-11-19T10:05:59;9.50;;;3.17;;
9310;SDS011;4694;52.464;13.480;2023-11-19T10:08:27;6.65;;;3.42;;
9310;SDS011;4694;52.464;13.480;2023-11-19T10:10:55;5.90;;;2.28;;
9310;SDS011;4694;52.464;13.480;2023-11-19T10:13:25;6.72;;;2.47;;
9310;SDS011;4694;52.464;13.480;2023-11-19T10:18:21;7.22;;;3.13;;
9310;SDS011;4694;52.464;13.480;2023-11-19T10:20:50;6.13;;;2.25;;
9310;SDS011;4694;52.464;13.480;2023-11-19T10:23:17;5.88;;;2.97;;
9310;SDS011;4694;52.464;13.480;2023-11-19T10:25:43;5.18;;;2.40;;
9310;SDS011;4694;52.464;13.480;2023-11-19T10:28:11;6.30;;;2.03;;
9310;SDS011;4694;52.464;13.480;2023-11-19T10:30:41;5.80;;;1.80;;
9310;SDS011;4694;52.464;13.480;2023-11-19T10:33:08;3.70;;;2.10;;
9310;SDS011;4694;52.464;13.480;2023-11-19T10:35:50;6.20;;;1.98;;
9310;SDS011;4694;52.464;13.480;2023-11-19T10:38:18;4.53;;;2.10;;
9310;SDS011;4694;52.464;13.480;2023-11-19T10:40:45;8.30;;;2.47;;
9310;SDS011;4694;52.464;13.480;2023-11-19T10:43:15;3.45;;;2.00;;
9310;SDS011;4694;52.464;13.480;2023-11-19T10:45:42;7.17;;;2.20;;
9310;SDS011;4694;52.464;13.480;2023-11-19T10:48:09;6.95;;;1.65;;
9310;SDS011;4694;52.464;13.480;2023-11-19T10:50:38;6.88;;;2.10;;
9310;SDS011;4694;52.464;13.480;2023-11-19T10:53:06;5.22;;;1.83;;
9310;SDS011;4694;52.464;13.480;2023-11-19T10:55:34;4.25;;;1.85;;
9310;SDS011;4694;52.464;13.480;2023-11-19T10:58:03;4.32;;;2.53;;
9310;SDS011;4694;52.464;13.480;2023-11-19T11:00:33;6.15;;;2.25;;
9310;SDS011;4694;52.464;13.480;2023-11-19T11:03:05;8.45;;;2.50;;
9310;SDS011;4694;52.464;13.480;2023-11-19T11:05:36;10.00;;;1.58;;
9310;SDS011;4694;52.464;13.480;2023-11-19T11:08:04;9.93;;;2.13;;
9310;SDS011;4694;52.464;13.480;2023-11-19T11:10:34;5.47;;;1.77;;
9310;SDS011;4694;52.464;13.480;2023-11-19T11:13:07;5.50;;;1.75;;
9310;SDS011;4694;52.464;13.480;2023-11-19T11:15:35;3.65;;;1.70;;
9310;SDS011;4694;52.464;13.480;2023-11-19T11:18:03;6.95;;;2.08;;
9310;SDS011;4694;52.464;13.480;2023-11-19T11:20:32;7.07;;;1.88;;
9310;SDS011;4694;52.464;13.480;2023-11-19T11:23:04;9.07;;;3.08;;
9310;SDS011;4694;52.464;13.480;2023-11-19T11:25:45;6.10;;;2.67;;
9310;SDS011;4694;52.464;13.480;2023-11-19T11:28:23;6.13;;;3.55;;
9310;SDS011;4694;52.464;13.480;2023-11-19T11:31:03;10.13;;;2.28;;
9310;SDS011;4694;52.464;13.480;2023-11-19T11:33:45;6.22;;;3.00;;
9310;SDS011;4694;52.464;13.480;2023-11-19T11:36:25;9.55;;;2.97;;
9310;SDS011;4694;52.464;13.480;2023-11-19T11:38:53;6.80;;;2.70;;
9310;SDS011;4694;52.464;13.480;2023-11-19T11:41:26;8.75;;;3.28;;
9310;SDS011;4694;52.464;13.480;2023-11-19T11:43:54;6.53;;;2.88;;
9310;SDS011;4694;52.464;13.480;2023-11-19T11:49:26;9.02;;;2.72;;
9310;SDS011;4694;52.464;13.480;2023-11-19T11:51:57;8.60;;;3.42;;
9310;SDS011;4694;52.464;13.480;2023-11-19T11:57:00;10.55;;;2.72;;
9310;SDS011;4694;52.464;13.480;2023-11-19T11:59:36;15.20;;;3.22;;
9310;SDS011;4694;52.464;13.480;2023-11-19T12:02:11;14.35;;;3.28;;
9310;SDS011;4694;52.464;13.480;2023-11-19T12:04:39;16.60;;;5.10;;
9310;SDS011;4694;52.464;13.480;2023-11-19T12:07:06;15.55;;;4.07;;
9310;SDS011;4694;52.464;13.480;2023-11-19T12:09:39;10.68;;;4.05;;
9310;SDS011;4694;52.464;13.480;2023-11-19T12:12:17;7.50;;;2.90;;
9310;SDS011;4694;52.464;13.480;2023-11-19T12:15:00;11.63;;;3.50;;
9310;SDS011;4694;52.464;13.480;2023-11-19T12:17:44;10.50;;;3.55;;
9310;SDS011;4694;52.464;13.480;2023-11-19T12:20:16;15.48;;;3.58;;
9310;SDS011;4694;52.464;13.480;2023-11-19T12:22:45;10.43;;;3.05;;
9310;SDS011;4694;52.464;13.480;2023-11-19T12:25:14;13.85;;;4.35;;
9310;SDS011;4694;52.464;13.480;2023-11-19T12:27:43;12.23;;;4.18;;
9310;SDS011;4694;52.464;13.480;2023-11-19T12:30:10;13.20;;;2.88;;
9310;SDS011;4694;52.464;13.480;2023-11-19T12:32:38;11.02;;;3.58;;
9310;SDS011;4694;52.464;13.480;2023-11-19T12:35:07;13.18;;;3.90;;
9310;SDS011;4694;52.464;13.480;2023-11-19T12:40:10;11.38;;;2.65;;
9310;SDS011;4694;52.464;13.480;2023-11-19T12:42:38;13.85;;;4.05;;
9310;SDS011;4694;52.464;13.480;2023-11-19T12:45:06;13.27;;;3.50;;
9310;SDS011;4694;52.464;13.480;2023-11-19T12:47:34;10.48;;;3.65;;
9310;SDS011;4694;52.464;13.480;2023-11-19T12:50:00;18.35;;;4.28;;
9310;SDS011;4694;52.464;13.480;2023-11-19T12:52:28;19.33;;;3.95;;
9310;SDS011;4694;52.464;13.480;2023-11-19T12:54:55;11.68;;;3.55;;
9310;SDS011;4694;52.464;13.480;2023-11-19T12:57:35;17.20;;;4.78;;
9310;SDS011;4694;52.464;13.480;2023-11-19T13:00:03;17.40;;;5.93;;
9310;SDS011;4694;52.464;13.480;2023-11-19T13:02:44;18.85;;;4.68;;
9310;SDS011;4694;52.464;13.480;2023-11-19T13:05:22;15.15;;;4.03;;
9310;SDS011;4694;52.464;13.480;2023-11-19T13:07:52;26.92;;;4.68;;
9310;SDS011;4694;52.464;13.480;2023-11-19T13:10:24;20.08;;;4.72;;
9310;SDS011;4694;52.464;13.480;2023-11-19T13:13:04;17.33;;;4.78;;
9310;SDS011;4694;52.464;13.480;2023-11-19T13:15:34;15.32;;;3.90;;
9310;SDS011;4694;52.464;13.480;2023-11-19T13:18:01;13.80;;;3.63;;
9310;SDS011;4694;52.464;13.480;2023-11-19T13:20:28;23.80;;;4.65;;
9310;SDS011;4694;52.464;13.480;2023-11-19T13:22:59;14.38;;;4.03;;
9310;SDS011;4694;52.464;13.480;2023-11-19T13:25:27;22.25;;;4.45;;
9310;SDS011;4694;52.464;13.480;2023-11-19T13:27:54;18.02;;;5.57;;
9310;SDS011;4694;52.464;13.480;2023-11-19T13:30:21;18.33;;;4.82;;
9310;SDS011;4694;52.464;13.480;2023-11-19T13:32:48;19.77;;;4.22;;
9310;SDS011;4694;52.464;13.480;2023-11-19T13:35:15;25.00;;;5.32;;
9310;SDS011;4694;52.464;13.480;2023-11-19T13:37:43;15.35;;;4.00;;
9310;SDS011;4694;52.464;13.480;2023-11-19T13:40:11;19.42;;;3.80;;
9310;SDS011;4694;52.464;13.480;2023-11-19T13:42:40;15.77;;;3.53;;
9310;SDS011;4694;52.464;13.480;2023-11-19T13:45:08;13.75;;;5.55;;
9310;SDS011;4694;52.464;13.480;2023-11-19T13:47:36;9.70;;;3.87;;
9310;SDS011;4694;52.464;13.480;2023-11-19T13:50:06;41.55;;;7.07;;
9310;SDS011;4694;52.464;13.480;2023-11-19T13:52:34;22.88;;;6.35;;
9310;SDS011;4694;52.464;13.480;2023-11-19T13:55:01;20.05;;;4.85;;
9310;SDS011;4694;52.464;13.480;2023-11-19T13:57:31;17.27;;;4.45;;
9310;SDS011;4694;52.464;13.480;2023-11-19T13:59:57;14.73;;;4.63;;
9310;SDS011;4694;52.464;13.480;2023-11-19T14:02:24;22.40;;;6.57;;
9310;SDS011;4694;52.464;13.480;2023-11-19T14:04:50;16.00;;;5.97;;
9310;SDS011;4694;52.464;13.480;2023-11-19T14:07:17;31.80;;;9.27;;
9310;SDS011;4694;52.464;13.480;2023-11-19T14:09:43;18.55;;;6.88;;
9310;SDS011;4694;52.464;13.480;2023-11-19T14:12:10;18.45;;;4.82;;
9310;SDS011;4694;52.464;13.480;2023-11-19T14:14:39;24.13;;;5.90;;
9310;SDS011;4694;52.464;13.480;2023-11-19T14:17:07;19.40;;;5.38;;
9310;SDS011;4694;52.464;13.480;2023-11-19T14:19:33;17.25;;;4.78;;
9310;SDS011;4694;52.464;13.480;2023-11-19T14:22:00;18.55;;;5.95;;
9310;SDS011;4694;52.464;13.480;2023-11-19T14:24:26;19.73;;;6.43;;
9310;SDS011;4694;52.464;13.480;2023-11-19T14:26:53;22.67;;;5.93;;
9310;SDS011;4694;52.464;13.480;2023-11-19T14:29:23;25.80;;;7.43;;
9310;SDS011;4694;52.464;13.480;2023-11-19T14:31:52;23.50;;;5.75;;
9310;SDS011;4694;52.464;13.480;2023-11-19T14:34:19;20.10;;;4.97;;
9310;SDS011;4694;52.464;13.480;2023-11-19T14:36:45;17.58;;;5.78;;
9310;SDS011;4694;52.464;13.480;2023-11-19T14:39:12;20.17;;;6.20;;
9310;SDS011;4694;52.464;13.480;2023-11-19T14:41:38;27.98;;;8.95;;
9310;SDS011;4694;52.464;13.480;2023-11-19T14:44:05;18.92;;;6.07;;
9310;SDS011;4694;52.464;13.480;2023-11-19T14:46:32;19.00;;;5.47;;
9310;SDS011;4694;52.464;13.480;2023-11-19T14:49:00;20.98;;;4.80;;
9310;SDS011;4694;52.464;13.480;2023-11-19T14:51:26;16.63;;;5.55;;
9310;SDS011;4694;52.464;13.480;2023-11-19T14:53:53;19.88;;;4.47;;
9310;SDS011;4694;52.464;13.480;2023-11-19T14:56:19;13.43;;;5.05;;
9310;SDS011;4694;52.464;13.480;2023-11-19T14:58:46;22.85;;;5.38;;
9310;SDS011;4694;52.464;13.480;2023-11-19T15:01:15;22.95;;;4.63;;
9310;SDS011;4694;52.464;13.480;2023-11-19T15:03:42;14.02;;;4.70;;
9310;SDS011;4694;52.464;13.480;2023-11-19T15:06:12;21.17;;;4.65;;
9310;SDS011;4694;52.464;13.480;2023-11-19T15:08:38;26.73;;;6.43;;
9310;SDS011;4694;52.464;13.480;2023-11-19T15:11:06;26.55;;;5.68;;